This is the latest recevied weather packets stored in our database for station/object K2CAT. If no packets are shown the sender has not sent any weather packets the latest 1 day(s).
| Time | Temp. | Humidity | Pressure | Rain* | Wind** | Luminosity | Snow |
|---|---|---|---|---|---|---|---|
| 1836274838 | 11.67° C | 92% | 1020.8 hPa | 0 mm | 0 m/s | 0 W/m² | - |
| 1836274535 | 12.22° C | 92% | 1020.8 hPa | 0 mm | 0 m/s | 0 W/m² | - |
| 1836274389 | 11.67° C | 93% | 1020.9 hPa | 0 mm | 0 m/s | 0 W/m² | - |
| 1836274235 | 12.22° C | 92% | 1020.8 hPa | 0 mm | 0 m/s | 0 W/m² | - |
| 1836273934 | 12.22° C | 92% | 1020.8 hPa | 0 mm | 0 m/s | 0 W/m² | - |
| 1778048526 | 17.78° C | 71% | 1008 hPa | 0 mm | 0 m/s | 0 W/m² | - |
| 1778048222 | 17.22° C | 73% | 1008.1 hPa | 0 mm | 0 m/s | 0 W/m² | - |
| 1778047920 | 17.22° C | 73% | 1008.2 hPa | 0 mm | 0 m/s | 0 W/m² | - |
| 1778047619 | 17.22° C | 73% | 1008.3 hPa | 0 mm | 0 m/s | 0 W/m² | - |
| 1778047315 | 17.22° C | 72% | 1008.1 hPa | 0 mm | 0.45 m/s, 246° | 0 W/m² | - |
| 1778047012 | 17.22° C | 74% | 1008 hPa | 0 mm | 0 m/s | 0 W/m² | - |
| 1778046709 | 17.22° C | 73% | 1008 hPa | 0 mm | 0 m/s | 0 W/m² | - |
| 1778046406 | 17.22° C | 73% | 1008.2 hPa | 0 mm | 0 m/s | 0 W/m² | - |
| 1778046102 | 17.78° C | 73% | 1008 hPa | 0 mm | 0 m/s | 0 W/m² | - |
| 1778045800 | 17.78° C | 72% | 1008.1 hPa | 0 mm | 0 m/s | 0 W/m² | - |
| 1778045498 | 17.22° C | 72% | 1008.1 hPa | 0 mm | 0 m/s | 0 W/m² | - |
| 1778045196 | 17.22° C | 73% | 1008 hPa | 0 mm | 0.45 m/s, 313° | 0 W/m² | - |
| 1778044894 | 17.22° C | 73% | 1008.1 hPa | 0 mm | 0 m/s | 0 W/m² | - |
| 1778044591 | 17.22° C | 73% | 1008.3 hPa | 0 mm | 0.45 m/s, 194° | 0 W/m² | - |
| 1778044287 | 17.22° C | 73% | 1008 hPa | 0 mm | 0.45 m/s, 323° | 0 W/m² | - |
| 1778043985 | 17.78° C | 72% | 1008.3 hPa | 0 mm | 0 m/s | 0 W/m² | - |
| 1778043682 | 17.22° C | 72% | 1008.2 hPa | 0 mm | 0 m/s | 0 W/m² | - |
| 1778043379 | 17.22° C | 74% | 1008.2 hPa | 0 mm | 0 m/s | 0 W/m² | - |
| 1778043075 | 17.22° C | 73% | 1008.3 hPa | 0 mm | 0 m/s | 0 W/m² | - |
| 1778042773 | 17.22° C | 73% | 1008.1 hPa | 0 mm | 0 m/s | 0 W/m² | - |
* Rain latest hour (hover to see other rain measurements)
** Current wind speed in m/s (hover to see current wind gust speed)